Tyler, TX

08:30 AM CDT on septembrie 29, 2016 (GMT -0500)
Front and Broadway | | Change Station

Elev 558 ft 32.35 °N, 95.30 °W | Updated 1 second ago

Clear
Cer senin
64.6 °F
Feels Like 64.6 °F
N
8.0
Vânt variabil Vânt from NE

astăzi
High -- | Low -- °F
--% Chance of Precip.
Ieri
High -- | Low -- °F
Precip. -- inch
Presiunea 30.18 inch
Vizibilitatea 10.0 mile
Nori Cer senin
Punctul de rouă 51 °F
Umiditatea 63%
Precipitaţii 0.00 inch
Adâncimea zăpezii Not available.
7:14 AM 7:07 PM
Semilună în descreştere, 2% visible
METAR KTYR 291253Z 03005KT 10SM CLR 17/10 A3019 RMK AO2 SLP219 T01670100
Presiunea 30.18 inch
Vizibilitatea 10.0 mile
Nori Cer senin
Punctul de rouă 51 °F
Umiditatea 63%
Precipitaţii 0.00 inch
Adâncimea zăpezii Not available.
7:14 AM 7:07 PM
Semilună în descreştere, 2% visible
METAR KTYR 291253Z 03005KT 10SM CLR 17/10 A3019 RMK AO2 SLP219 T01670100

10-Day Weather Forecast

Almanac

Astronomie

Sep. 29, 2016 Răsărit Apus
Timpul Actual
Crepusculul Civil
Crepusculul nautic
Răsărit Astronomic
Luna
Durata zilei lumină
Lungimea zilei
Tomorrow will be .
, % of the Moon is Illuminated

Extremele de azi

State Highs State Lows

Community

WunderPhotos

Upload Photos

1,942,470 photos uploaded!

WunderBlog® & News

Nearby

Calitatea aerului

  Calitatea aerului Index de calitate a aerului Poluat
Not available.

Adâncimea zapezii

Station Depth Elevation

Earthquake Activity

Oraş Distance Mag. Time & Date
Minimum magnitude displayed is 2.5.

Coastal Water Temperatures

Locul Temperatura

Stations

Nearby Weather Stations

Locaţia staţiei Temp Vânt rece Punctul de rouă Umiditatea Vânt Precip. Elev Actualizare Type
                   

Watches & Warnings

There are currently no watches in effect.